Aérodrome :
LOGIN :

S'inscrire | Disclaimer

   EN    FR    IT 

 










Légende :    VFR   VFR Marginal   IFR   IFR Intensif   IFR Très Intensif
Visi : 
Plafond : 
>= 8 km
>= 3000ft
5 à 8 km
1000 à 3000 ft
1500m à 5 km
500 à 1000 ft
800 à 1500m
200 à 500 ft
< 800m
< 200 ft
Symboles :   Orages  Brouillard  Fortes neiges  Fortes précipitations  Vent > 20 kt
SIGMETs :   Divers  Orages  Givrage  Turbulence  Onde Orograph.  Cendres Volcan.






- Altitude de l'aérodrome : 79 ft
- Code IATA : SPU


LDSP - Split

DERNIER METAR :
  • 091300Z 29015KT 230V320 9999 FEW070 34/14 Q1013 TEMPO -TSRA FEW050CB

METARs EXPIRÉS :
  • 091230Z 30013KT 9999 VCTS FEW040CB SCT050 33/15 Q1013 TEMPO 23014KT -TSRA
  • 091200Z 22010KT 190V290 9999 -RA BKN045 32/17 Q1013 TEMPO 23014KT FEW040CB
  • 091130Z 17007KT 100V210 9999 SCT050 36/14 Q1013 BECMG FM1200 23009KT TEMPO FEW050CB
  • 091100Z 13008KT 090V170 9999 SCT060 34/15 Q1013 BECMG TL1200 23009KT
  • 091030Z 11008KT 9999 SCT060 35/14 Q1013 NOSIG

TAF AMD TAF LDSP
Valide du 09 à 12h jusqu'au 10 à 12h UTC


091240Z 0912/1012 23009KT 9999 FEW060 TX35/0912Z TN25/1004Z
PROB40
TEMPO 0912/0917 30015G25KT -TSRA FEW050CB
BECMG 0915/0917 31008KT
BECMG 1009/1011 23010KT



MET'MAP, la Météo Aéronautique d'un coup d'oeil ! - Copyright ORBIFLY Décembre 2007 - Disclaimer

ORBIFLY MET'MAP TEAM :

Programmation & Développement : Alexandra Zaïnal
Sur une idée originale de : Baudouin d'Aumeries
Assistance à la programmation : Marc-Olivier Méhu
Soutien technique & logistique : Manuel Goepfert

Contact : metmap@orbifly.com




SOURCES & CREDITS :

   NOAA